createdAt,value
2018-08-04T09:07:19.401Z,26.00
2018-08-04T09:09:48.575Z,31.80
2018-08-04T09:12:17.753Z,33.20
2018-08-04T09:14:46.930Z,33.70
2018-08-04T09:17:16.221Z,33.30
2018-08-04T09:19:45.431Z,33.70
2018-08-04T09:22:14.611Z,33.80
2018-08-04T09:24:43.830Z,33.90
2018-08-04T09:27:13.051Z,34.10
2018-08-04T09:29:42.263Z,34.20
2018-08-04T09:32:11.458Z,33.90
2018-08-04T09:34:40.700Z,33.40
2018-08-04T09:37:09.894Z,33.80
2018-08-04T09:39:39.174Z,33.70
2018-08-04T09:42:08.362Z,33.70
2018-08-04T09:44:44.372Z,33.30
2018-08-04T09:47:13.558Z,33.40
2018-08-04T09:49:42.846Z,33.20
2018-08-04T09:52:12.034Z,33.80
2018-08-04T09:54:41.202Z,34.00
2018-08-04T09:57:10.378Z,34.50
2018-08-04T09:59:39.579Z,34.70
2018-08-04T10:02:11.093Z,34.30
2018-08-04T10:04:40.667Z,34.20
2018-08-04T10:07:10.484Z,33.80
2018-08-04T10:09:39.683Z,33.90
2018-08-04T10:12:08.869Z,34.60
2018-08-04T10:14:38.078Z,35.40
2018-08-04T10:17:07.365Z,35.50
2018-08-04T10:19:36.545Z,35.40
2018-08-04T10:22:05.757Z,35.20
2018-08-04T10:24:34.984Z,34.70
2018-08-04T10:27:04.217Z,34.10
2018-08-04T10:29:33.575Z,33.80
2018-08-04T10:32:02.879Z,33.60
2018-08-04T10:34:31.988Z,32.60
2018-08-04T10:37:01.229Z,33.20
2018-08-04T10:39:30.449Z,34.10
2018-08-04T10:41:59.741Z,34.60
2018-08-04T10:44:28.990Z,35.80
2018-08-04T10:46:58.250Z,37.00
2018-08-04T10:49:27.476Z,36.90
2018-08-04T10:51:56.644Z,37.00
2018-08-04T10:54:28.043Z,36.70
2018-08-04T10:56:57.316Z,36.70
2018-08-04T10:59:26.564Z,36.20
2018-08-04T11:01:55.806Z,35.80
2018-08-04T11:04:25.383Z,36.30
2018-08-04T11:06:54.553Z,36.80
2018-08-04T11:09:23.759Z,37.30
2018-08-04T11:11:52.984Z,37.60
2018-08-04T11:14:22.186Z,37.00
2018-08-04T11:16:51.383Z,36.50
2018-08-04T11:19:20.582Z,36.60
2018-08-04T11:21:49.808Z,36.60
2018-08-04T11:24:19.016Z,36.60
2018-08-04T11:26:48.242Z,35.50
2018-08-04T11:29:17.476Z,35.00
2018-08-04T11:31:47.372Z,36.20
2018-08-04T11:34:16.598Z,36.70
2018-08-04T11:36:45.822Z,37.10
2018-08-04T11:39:15.004Z,36.70
2018-08-04T11:41:44.222Z,36.60
2018-08-04T11:44:13.700Z,36.10
2018-08-04T11:46:42.934Z,35.60
2018-08-04T11:49:12.223Z,35.40
2018-08-04T11:51:41.473Z,35.10
2018-08-04T11:54:10.589Z,34.60
2018-08-04T11:56:39.803Z,34.30
2018-08-04T11:59:09.033Z,34.50
2018-08-04T12:01:38.259Z,35.90
2018-08-04T12:04:07.539Z,35.60
2018-08-04T12:06:36.897Z,35.80
2018-08-04T12:09:09.302Z,35.10
2018-08-04T12:11:38.507Z,33.90
2018-08-04T12:14:08.430Z,34.40
2018-08-04T12:16:37.719Z,32.50
2018-08-04T12:19:06.924Z,34.10
2018-08-04T12:21:36.148Z,33.60
2018-08-04T12:24:05.390Z,33.40
2018-08-04T12:26:34.608Z,33.40
2018-08-04T12:29:03.779Z,32.80
2018-08-04T12:31:33.010Z,33.60
2018-08-04T12:34:02.279Z,34.50
2018-08-04T12:36:31.434Z,35.40
2018-08-04T12:39:00.575Z,35.50
2018-08-04T12:41:29.776Z,35.90
2018-08-04T12:43:58.987Z,36.60
2018-08-04T12:46:28.162Z,35.60
2018-08-04T12:48:57.379Z,35.90
2018-08-04T12:51:26.697Z,35.40
2018-08-04T12:53:55.862Z,35.10
2018-08-04T12:56:25.072Z,35.80
2018-08-04T12:58:54.246Z,35.70
2018-08-04T13:01:23.405Z,35.70
2018-08-04T13:03:52.580Z,35.60
2018-08-04T13:06:21.716Z,35.40
2018-08-04T13:08:50.937Z,36.00
2018-08-04T13:11:20.131Z,36.40
2018-08-04T13:13:49.286Z,35.00
2018-08-04T13:16:18.421Z,35.40
2018-08-04T13:18:47.576Z,34.90
2018-08-04T13:21:16.752Z,34.10
2018-08-04T13:23:45.906Z,34.80
2018-08-04T13:26:15.100Z,35.40
2018-08-04T13:28:44.239Z,34.90
2018-08-04T13:31:13.412Z,35.70
2018-08-04T13:33:42.576Z,35.40
2018-08-04T13:36:11.785Z,34.70
2018-08-04T13:38:40.943Z,35.40
2018-08-04T13:41:10.106Z,34.90
2018-08-04T13:43:39.307Z,35.00
2018-08-04T13:46:08.511Z,35.10
2018-08-04T13:48:37.699Z,35.10
2018-08-04T13:51:06.989Z,35.10
2018-08-04T13:53:36.217Z,34.70
2018-08-04T13:56:05.615Z,33.10
2018-08-04T13:58:34.997Z,32.50
2018-08-04T14:01:04.224Z,33.30
2018-08-04T14:03:33.389Z,33.30
2018-08-04T14:06:02.530Z,32.50
2018-08-04T14:08:31.689Z,32.40
2018-08-04T14:11:00.877Z,32.60
2018-08-04T14:13:30.049Z,32.30
2018-08-04T14:15:59.237Z,32.10
2018-08-04T14:18:28.457Z,32.40
2018-08-04T14:20:57.657Z,32.70
2018-08-04T14:23:26.829Z,32.40
2018-08-04T14:25:55.972Z,32.80
2018-08-04T14:28:25.209Z,32.30
2018-08-04T14:30:54.339Z,32.40
2018-08-04T14:33:23.515Z,31.70
2018-08-04T14:35:52.764Z,31.40
2018-08-04T14:38:21.956Z,30.30
2018-08-04T14:40:51.116Z,29.80
2018-08-04T14:43:20.274Z,29.50
2018-08-04T14:45:49.483Z,29.80
2018-08-04T14:48:18.678Z,30.10
2018-08-04T14:50:47.976Z,30.20
2018-08-04T14:53:17.112Z,29.60
2018-08-04T14:55:46.277Z,29.60
2018-08-04T14:58:15.434Z,28.90
2018-08-04T15:00:44.602Z,28.60
2018-08-04T15:03:13.760Z,28.00
2018-08-04T15:05:42.958Z,27.70
2018-08-04T15:08:12.127Z,27.90
2018-08-04T15:10:41.282Z,27.50
2018-08-04T15:13:10.450Z,27.40
2018-08-04T15:15:39.661Z,27.20
2018-08-04T15:18:08.848Z,27.20
2018-08-04T15:20:38.010Z,27.20
2018-08-04T15:23:07.185Z,27.20
2018-08-04T15:25:36.353Z,27.00
2018-08-04T15:28:05.620Z,27.30
2018-08-04T15:30:34.779Z,27.10
2018-08-04T15:33:03.983Z,27.20
2018-08-04T15:35:33.085Z,27.60
2018-08-04T15:38:02.283Z,27.00
2018-08-04T15:40:31.458Z,26.90
2018-08-04T15:43:00.613Z,27.00
2018-08-04T15:45:29.798Z,26.80
2018-08-04T15:47:58.980Z,26.80
2018-08-04T15:50:28.171Z,26.90
2018-08-04T15:52:57.361Z,27.20
2018-08-04T15:55:26.557Z,27.00
2018-08-04T15:57:55.751Z,27.00
2018-08-04T16:00:24.920Z,26.70
2018-08-04T16:02:54.091Z,26.60
2018-08-04T16:05:23.304Z,26.30
2018-08-04T16:07:52.465Z,26.60
2018-08-04T16:10:21.636Z,26.30
2018-08-04T16:12:50.888Z,26.10
2018-08-04T16:15:20.057Z,26.10
2018-08-04T16:17:49.316Z,26.00
2018-08-04T16:20:19.392Z,25.90
2018-08-04T16:22:48.652Z,25.80
2018-08-04T16:25:17.829Z,25.80
2018-08-04T16:27:46.994Z,25.90
2018-08-04T16:30:16.156Z,26.20
2018-08-04T16:32:45.344Z,26.40
2018-08-04T16:35:14.506Z,25.80
2018-08-04T16:37:43.656Z,25.40
2018-08-04T16:40:12.836Z,25.30
2018-08-04T16:42:42.039Z,25.20
2018-08-04T16:45:11.177Z,25.30
2018-08-04T16:47:40.346Z,25.20
2018-08-04T16:50:09.509Z,25.50
2018-08-04T16:52:38.658Z,25.50
2018-08-04T16:55:07.797Z,25.60
2018-08-04T16:57:36.990Z,25.10
2018-08-04T17:00:06.812Z,25.20
2018-08-04T17:02:36.026Z,25.10
2018-08-04T17:05:05.485Z,24.80
2018-08-04T17:07:34.695Z,24.70
2018-08-04T17:10:03.882Z,25.00
2018-08-04T17:12:33.132Z,24.90
2018-08-04T17:15:02.282Z,24.50
2018-08-04T17:17:31.466Z,24.50
2018-08-04T17:20:00.645Z,24.30
2018-08-04T17:22:29.817Z,24.20
2018-08-04T17:24:59.015Z,23.90
2018-08-04T17:27:28.240Z,23.80
2018-08-04T17:29:57.403Z,24.10
2018-08-04T17:32:26.581Z,23.80
2018-08-04T17:34:55.725Z,23.80
2018-08-04T17:37:24.977Z,23.70
2018-08-04T17:39:54.068Z,23.80
2018-08-04T17:42:23.242Z,23.60
2018-08-04T17:44:52.443Z,23.60
2018-08-04T17:47:21.600Z,23.40
2018-08-04T17:49:50.783Z,23.30
2018-08-04T17:52:19.989Z,23.40
2018-08-04T17:54:49.158Z,23.50
2018-08-04T17:57:18.381Z,23.30
2018-08-04T17:59:47.482Z,23.20
2018-08-04T18:02:16.645Z,23.10
2018-08-04T18:04:45.797Z,23.10
2018-08-04T18:07:14.959Z,23.00
2018-08-04T18:09:50.637Z,22.90
2018-08-04T18:12:19.798Z,22.90
2018-08-04T18:14:49.021Z,22.90
2018-08-04T18:17:18.152Z,23.00
2018-08-04T18:19:48.454Z,23.00
2018-08-04T18:22:17.574Z,22.80
2018-08-04T18:24:46.753Z,22.60
2018-08-04T18:27:15.953Z,22.70
2018-08-04T18:29:45.174Z,22.60
2018-08-04T18:32:14.334Z,22.50
2018-08-04T18:34:43.476Z,22.50
2018-08-04T18:37:12.659Z,22.50
2018-08-04T18:39:41.832Z,22.30
2018-08-04T18:42:10.982Z,22.30
2018-08-04T18:44:40.192Z,22.20
2018-08-04T18:47:09.843Z,22.30
2018-08-04T18:49:39.021Z,22.10
2018-08-04T18:52:08.255Z,22.00
2018-08-04T18:54:37.467Z,22.00
2018-08-04T18:57:06.661Z,21.80
2018-08-04T18:59:36.526Z,21.80
2018-08-04T19:02:05.775Z,21.80
2018-08-04T19:04:34.917Z,21.70
2018-08-04T19:07:04.092Z,21.70
2018-08-04T19:09:33.273Z,21.60
2018-08-04T19:12:02.517Z,21.60
2018-08-04T19:14:31.707Z,21.50
2018-08-04T19:17:00.875Z,21.40
2018-08-04T19:19:30.090Z,21.30
2018-08-04T19:21:59.264Z,21.30
2018-08-04T19:24:28.435Z,21.30
2018-08-04T19:26:57.632Z,21.20
2018-08-04T19:29:26.807Z,21.10
2018-08-04T19:31:56.063Z,21.10
2018-08-04T19:34:25.231Z,21.00
2018-08-04T19:36:54.684Z,21.00
2018-08-04T19:39:23.883Z,20.90
2018-08-04T19:41:53.056Z,20.90
2018-08-04T19:44:22.219Z,20.80
2018-08-04T19:46:51.374Z,20.80
2018-08-04T19:49:20.544Z,20.90
2018-08-04T19:51:49.707Z,20.80
2018-08-04T19:54:18.885Z,20.70
2018-08-04T19:56:48.036Z,20.60
2018-08-04T19:59:17.243Z,20.60
2018-08-04T20:01:46.401Z,20.60
2018-08-04T20:04:18.449Z,20.40
2018-08-04T20:06:47.639Z,20.40
2018-08-04T20:09:16.859Z,20.30
2018-08-04T20:11:46.034Z,20.30
2018-08-04T20:14:15.219Z,20.30
2018-08-04T20:16:44.404Z,20.30
2018-08-04T20:19:13.569Z,20.20
2018-08-04T20:21:42.764Z,20.10
2018-08-04T20:24:11.942Z,20.00
2018-08-04T20:26:41.142Z,20.10
2018-08-04T20:29:10.394Z,20.00
2018-08-04T20:31:39.597Z,19.90
2018-08-04T20:34:08.774Z,19.80
2018-08-04T20:36:37.960Z,19.70
2018-08-04T20:39:09.011Z,19.70
2018-08-04T20:41:38.244Z,19.70
2018-08-04T20:44:07.435Z,19.70
2018-08-04T20:46:36.632Z,19.60
2018-08-04T20:49:05.849Z,19.50
2018-08-04T20:51:35.038Z,19.40
2018-08-04T20:54:04.186Z,19.40
2018-08-04T20:56:33.362Z,19.40
2018-08-04T20:59:02.545Z,19.40
2018-08-04T21:01:42.168Z,19.30
2018-08-04T21:04:11.270Z,19.20
2018-08-04T21:06:40.431Z,19.10
2018-08-04T21:09:09.655Z,19.10
2018-08-04T21:11:46.274Z,19.00
2018-08-04T21:14:15.431Z,19.10
2018-08-04T21:16:44.573Z,19.00
2018-08-04T21:19:13.763Z,19.00
2018-08-04T21:21:42.901Z,19.00
2018-08-04T21:24:12.064Z,19.00
2018-08-04T21:26:41.253Z,18.90
2018-08-04T21:29:10.397Z,19.00
2018-08-04T21:31:39.594Z,18.90
2018-08-04T21:34:09.147Z,18.80
2018-08-04T21:36:38.323Z,18.80
2018-08-04T21:39:10.324Z,18.70
2018-08-04T21:41:39.532Z,18.60
2018-08-04T21:44:08.773Z,18.70
2018-08-04T21:46:46.812Z,18.70
2018-08-04T21:49:16.112Z,18.70
2018-08-04T21:51:46.431Z,18.60
2018-08-04T21:54:19.918Z,18.70
2018-08-04T21:56:45.858Z,18.60
2018-08-04T21:59:15.040Z,18.80
2018-08-04T22:01:49.631Z,18.80
2018-08-04T22:04:18.809Z,18.90
2018-08-04T22:07:58.022Z,18.80
2018-08-04T22:10:27.370Z,18.90
2018-08-04T22:12:56.928Z,18.90
2018-08-04T22:15:26.190Z,19.00
2018-08-04T22:17:55.389Z,19.00
2018-08-04T22:20:25.221Z,19.00
2018-08-04T22:22:54.418Z,19.10
2018-08-04T22:25:24.735Z,19.10
2018-08-04T22:27:54.227Z,19.20
2018-08-04T22:30:23.853Z,19.30
2018-08-04T22:32:53.161Z,19.30
2018-08-04T22:35:22.681Z,19.30
2018-08-04T22:37:51.867Z,19.30
2018-08-04T22:40:22.371Z,19.40
2018-08-04T22:42:51.527Z,19.50
2018-08-04T22:46:24.666Z,19.50
2018-08-04T22:48:54.665Z,19.40
2018-08-04T22:51:28.853Z,19.30
2018-08-04T22:53:58.015Z,19.20
2018-08-04T22:56:27.257Z,19.20
2018-08-04T22:58:56.420Z,19.20
2018-08-04T23:01:25.579Z,19.20
2018-08-04T23:03:54.733Z,19.30
2018-08-04T23:06:23.889Z,19.30
2018-08-04T23:08:53.044Z,19.40
2018-08-04T23:11:22.222Z,19.30
2018-08-04T23:13:51.379Z,19.30
2018-08-04T23:16:20.550Z,19.20
2018-08-04T23:18:49.724Z,19.10
2018-08-04T23:21:18.848Z,19.10
2018-08-04T23:23:48.062Z,19.00
2018-08-04T23:26:17.255Z,19.10
2018-08-04T23:28:46.420Z,19.10
2018-08-04T23:31:15.583Z,19.10
2018-08-04T23:33:44.740Z,19.10
2018-08-04T23:36:13.892Z,19.00
2018-08-04T23:38:43.068Z,19.00
2018-08-04T23:41:12.213Z,19.10
2018-08-04T23:43:41.463Z,19.00
2018-08-04T23:46:10.624Z,19.00
2018-08-04T23:48:39.788Z,19.00
2018-08-04T23:51:08.938Z,19.10
2018-08-04T23:53:38.109Z,19.20
2018-08-04T23:56:07.261Z,19.20
2018-08-04T23:58:36.430Z,19.20
